createdAt,value
2023-04-21T00:01:59.856Z,66.12
2023-04-21T00:04:29.143Z,66.23
2023-04-21T00:06:57.787Z,66.19
2023-04-21T00:09:26.169Z,66.16
2023-04-21T00:11:54.561Z,66.13
2023-04-21T00:14:23.234Z,66.17
2023-04-21T00:16:53.044Z,66.17
2023-04-21T00:19:21.835Z,66.24
2023-04-21T00:21:50.263Z,66.21
2023-04-21T00:24:18.891Z,66.03
2023-04-21T00:26:47.373Z,66.02
2023-04-21T00:29:15.661Z,65.88
2023-04-21T00:31:44.054Z,65.90
2023-04-21T00:34:12.318Z,65.87
2023-04-21T00:36:41.195Z,65.84
2023-04-21T00:39:09.983Z,65.89
2023-04-21T00:41:40.105Z,65.88
2023-04-21T00:44:09.746Z,65.96
2023-04-21T00:46:38.964Z,65.85
2023-04-21T00:49:08.179Z,65.87
2023-04-21T00:51:37.303Z,65.77
2023-04-21T00:54:06.879Z,65.75
2023-04-21T00:56:36.221Z,65.64
2023-04-21T00:59:04.891Z,65.68
2023-04-21T01:01:34.514Z,65.71
2023-04-21T01:04:04.288Z,65.65
2023-04-21T01:06:33.401Z,65.66
2023-04-21T01:09:02.194Z,65.68
2023-04-21T01:11:32.006Z,65.70
2023-04-21T01:14:01.775Z,65.69
2023-04-21T01:16:30.440Z,65.72
2023-04-21T01:18:59.501Z,65.75
2023-04-21T01:21:29.209Z,65.78
2023-04-21T01:23:57.886Z,65.75
2023-04-21T01:26:26.267Z,65.67
2023-04-21T01:28:57.228Z,65.56
2023-04-21T01:31:27.665Z,65.47
2023-04-21T01:33:56.215Z,65.61
2023-04-21T01:36:24.707Z,65.68
2023-04-21T01:38:54.402Z,65.68
2023-04-21T01:41:24.012Z,65.45
2023-04-21T01:43:52.322Z,65.52
2023-04-21T01:46:21.250Z,65.60
2023-04-21T01:48:49.766Z,65.81
2023-04-21T01:51:18.245Z,65.89
2023-04-21T01:53:46.730Z,65.93
2023-04-21T01:56:15.519Z,65.98
2023-04-21T01:58:43.995Z,66.10
2023-04-21T02:01:12.306Z,66.23
2023-04-21T02:03:41.121Z,66.32
2023-04-21T02:06:09.945Z,66.27
2023-04-21T02:08:38.452Z,66.29
2023-04-21T02:11:06.704Z,66.36
2023-04-21T02:13:35.080Z,66.37
2023-04-21T02:16:13.311Z,66.33
2023-04-21T02:18:44.727Z,66.30
2023-04-21T02:21:13.217Z,66.29
2023-04-21T02:23:42.010Z,66.49
2023-04-21T02:26:10.691Z,66.50
2023-04-21T02:28:39.072Z,66.52
2023-04-21T02:31:07.512Z,66.64
2023-04-21T02:33:36.245Z,66.71
2023-04-21T02:36:05.156Z,66.70
2023-04-21T02:38:33.706Z,66.73
2023-04-21T02:41:01.999Z,66.74
2023-04-21T02:43:30.382Z,66.72
2023-04-21T02:45:58.940Z,66.93
2023-04-21T02:48:27.251Z,67.01
2023-04-21T02:50:55.903Z,66.96
2023-04-21T02:53:24.496Z,67.01
2023-04-21T02:55:53.292Z,67.01
2023-04-21T02:58:22.699Z,67.09
2023-04-21T03:00:51.832Z,67.05
2023-04-21T03:03:20.774Z,66.86
2023-04-21T03:05:49.357Z,66.97
2023-04-21T03:08:19.157Z,67.26
2023-04-21T03:10:47.954Z,67.52
2023-04-21T03:13:17.157Z,67.84
2023-04-21T03:15:45.524Z,68.14
2023-04-21T03:18:13.960Z,68.37
2023-04-21T03:20:43.198Z,68.53
2023-04-21T03:23:11.712Z,68.78
2023-04-21T03:25:40.086Z,68.99
2023-04-21T03:28:08.648Z,69.12
2023-04-21T03:30:37.839Z,69.32
2023-04-21T03:33:06.804Z,69.54
2023-04-21T03:35:35.314Z,69.59
2023-04-21T03:38:04.303Z,69.67
2023-04-21T03:40:33.509Z,69.71
2023-04-21T03:43:03.312Z,69.72
2023-04-21T03:45:31.939Z,69.76
2023-04-21T03:48:00.957Z,69.74
2023-04-21T03:50:29.990Z,69.76
2023-04-21T03:52:58.370Z,69.63
2023-04-21T03:55:26.641Z,69.53
2023-04-21T03:57:55.015Z,69.38
2023-04-21T04:00:23.599Z,69.49
2023-04-21T04:02:51.976Z,69.69
2023-04-21T04:05:20.598Z,69.75
2023-04-21T04:07:49.153Z,69.63
2023-04-21T04:10:17.641Z,69.77
2023-04-21T04:12:46.521Z,69.90
2023-04-21T04:15:15.281Z,69.95
2023-04-21T04:17:43.806Z,69.94
2023-04-21T04:20:13.098Z,69.98
2023-04-21T04:22:41.563Z,70.04
2023-04-21T04:25:10.247Z,70.11
2023-04-21T04:27:38.939Z,70.15
2023-04-21T04:30:08.288Z,70.14
2023-04-21T04:32:39.834Z,70.13
2023-04-21T04:35:08.878Z,69.93
2023-04-21T04:37:37.737Z,69.72
2023-04-21T04:40:27.241Z,69.63
2023-04-21T04:42:55.822Z,69.33
2023-04-21T04:45:26.564Z,69.30
2023-04-21T04:47:54.989Z,69.36
2023-04-21T04:50:23.209Z,69.28
2023-04-21T04:52:51.594Z,69.25
2023-04-21T04:55:20.301Z,69.17
2023-04-21T04:57:48.769Z,69.10
2023-04-21T05:00:17.648Z,69.17
2023-04-21T05:02:46.176Z,69.21
2023-04-21T05:05:14.785Z,69.04
2023-04-21T05:07:43.605Z,68.87
2023-04-21T05:10:11.983Z,68.41
2023-04-21T05:12:41.725Z,68.15
2023-04-21T05:15:10.164Z,68.04
2023-04-21T05:17:39.209Z,67.82
2023-04-21T05:20:08.591Z,67.71
2023-04-21T05:22:38.493Z,67.72
2023-04-21T05:25:07.473Z,67.65
2023-04-21T05:27:36.907Z,67.38
2023-04-21T05:30:05.867Z,67.21
2023-04-21T05:32:34.780Z,67.25
2023-04-21T05:35:04.152Z,67.39
2023-04-21T05:37:32.534Z,67.51
2023-04-21T05:40:01.047Z,67.54
2023-04-21T05:42:29.496Z,67.50
2023-04-21T05:44:58.396Z,67.06
2023-04-21T05:47:27.049Z,66.87
2023-04-21T05:49:56.071Z,66.79
2023-04-21T05:52:24.670Z,66.80
2023-04-21T05:54:53.124Z,66.72
2023-04-21T05:57:21.709Z,66.66
2023-04-21T05:59:49.991Z,66.53
2023-04-21T06:02:19.022Z,66.20
2023-04-21T06:04:47.761Z,66.24
2023-04-21T06:07:18.757Z,66.30
2023-04-21T06:09:51.593Z,66.14
2023-04-21T06:12:19.860Z,66.06
2023-04-21T06:14:48.236Z,66.11
2023-04-21T06:17:18.357Z,66.13
2023-04-21T06:19:46.836Z,65.94
2023-04-21T06:22:15.298Z,66.05
2023-04-21T06:24:43.695Z,65.90
2023-04-21T06:27:14.837Z,66.10
2023-04-21T06:29:43.627Z,66.17
2023-04-21T06:32:12.451Z,66.13
2023-04-21T06:34:41.301Z,65.71
2023-04-21T06:37:09.681Z,65.71
2023-04-21T06:39:38.263Z,65.77
2023-04-21T06:42:06.748Z,65.71
2023-04-21T06:44:43.631Z,65.48
2023-04-21T06:47:12.261Z,65.24
2023-04-21T06:49:40.583Z,65.36
2023-04-21T06:52:09.173Z,65.52
2023-04-21T06:54:38.666Z,65.80
2023-04-21T06:57:07.461Z,66.19
2023-04-21T06:59:36.656Z,66.47
2023-04-21T07:02:05.173Z,66.36
2023-04-21T07:04:33.838Z,66.43
2023-04-21T07:07:03.397Z,66.23
2023-04-21T07:09:34.128Z,66.09
2023-04-21T07:12:03.258Z,66.01
2023-04-21T07:14:31.538Z,66.05
2023-04-21T07:17:00.150Z,65.99
2023-04-21T07:19:28.617Z,65.70
2023-04-21T07:21:57.496Z,65.28
2023-04-21T07:24:25.876Z,65.32
2023-04-21T07:26:54.347Z,65.30
2023-04-21T07:29:22.945Z,65.21
2023-04-21T07:31:52.048Z,65.22
2023-04-21T07:34:20.435Z,65.30
2023-04-21T07:36:48.840Z,65.39
2023-04-21T07:39:17.524Z,65.36
2023-04-21T07:41:46.561Z,65.11
2023-04-21T07:44:14.836Z,64.96
2023-04-21T07:46:43.478Z,64.85
2023-04-21T07:49:12.204Z,64.84
2023-04-21T07:51:40.585Z,64.87
2023-04-21T07:54:09.171Z,64.76
2023-04-21T07:56:37.954Z,64.87
2023-04-21T07:59:06.336Z,64.84
2023-04-21T08:01:36.247Z,64.77
2023-04-21T08:04:04.706Z,64.63
2023-04-21T08:06:33.613Z,64.40
2023-04-21T08:09:02.224Z,64.43
2023-04-21T08:11:30.885Z,64.38
2023-04-21T08:13:59.470Z,64.39
2023-04-21T08:16:27.907Z,64.42
2023-04-21T08:18:56.545Z,64.55
2023-04-21T08:21:25.053Z,64.71
2023-04-21T08:23:56.053Z,64.57
2023-04-21T08:26:25.604Z,64.56
2023-04-21T08:28:53.966Z,64.49
2023-04-21T08:31:22.794Z,64.49
2023-04-21T08:34:01.127Z,64.44
2023-04-21T08:36:32.175Z,64.41
2023-04-21T08:39:00.771Z,64.26
2023-04-21T08:41:29.244Z,64.11
2023-04-21T08:43:57.723Z,64.11
2023-04-21T08:46:26.376Z,64.07
2023-04-21T08:48:55.666Z,63.91
2023-04-21T08:51:24.576Z,63.84
2023-04-21T08:53:57.517Z,63.55
2023-04-21T08:56:26.589Z,63.61
2023-04-21T08:58:55.196Z,63.63
2023-04-21T09:01:23.725Z,63.78
2023-04-21T09:03:52.398Z,63.82
2023-04-21T09:06:21.415Z,63.65
2023-04-21T09:08:56.291Z,63.65
2023-04-21T09:11:25.997Z,63.59
2023-04-21T09:13:57.007Z,63.43
2023-04-21T09:16:25.741Z,63.26
2023-04-21T09:18:54.184Z,63.13
2023-04-21T09:21:23.566Z,63.09
2023-04-21T09:23:53.192Z,62.97
2023-04-21T09:26:23.359Z,62.84
2023-04-21T09:28:52.496Z,62.85
2023-04-21T09:31:33.542Z,62.68
2023-04-21T09:34:02.205Z,62.72
2023-04-21T09:36:32.349Z,62.63
2023-04-21T09:41:33.766Z,62.79
2023-04-21T09:44:04.302Z,62.39
2023-04-21T09:46:34.519Z,62.17
2023-04-21T09:49:03.492Z,62.57
2023-04-21T09:51:56.307Z,62.45
2023-04-21T09:56:54.161Z,62.50
2023-04-21T09:59:27.733Z,62.84
2023-04-21T10:01:56.936Z,62.60
2023-04-21T10:04:26.461Z,62.44
2023-04-21T10:06:55.194Z,62.54
2023-04-21T10:09:24.499Z,62.79
2023-04-21T10:11:53.456Z,62.56
2023-04-21T10:14:22.857Z,62.32
2023-04-21T10:16:59.495Z,62.44
2023-04-21T10:19:28.313Z,62.83
2023-04-21T10:21:57.887Z,62.63
2023-04-21T10:24:30.545Z,62.59
2023-04-21T10:26:59.840Z,62.35
2023-04-21T10:29:40.148Z,62.43
2023-04-21T10:32:12.738Z,62.29
2023-04-21T10:34:41.592Z,62.40
2023-04-21T10:37:12.524Z,62.19
2023-04-21T10:39:55.326Z,61.88
2023-04-21T10:42:28.422Z,61.72
2023-04-21T10:44:56.878Z,61.30
2023-04-21T10:47:49.419Z,61.51
2023-04-21T10:50:22.216Z,61.26
2023-04-21T10:53:01.144Z,61.55
2023-04-21T10:55:30.047Z,61.78
2023-04-21T10:58:01.994Z,62.00
2023-04-21T11:00:30.581Z,61.84
2023-04-21T11:03:03.567Z,61.44
2023-04-21T11:05:39.530Z,61.18
2023-04-21T11:08:13.177Z,61.26
2023-04-21T11:10:56.644Z,61.11
2023-04-21T11:13:27.277Z,60.87
2023-04-21T11:16:00.194Z,61.15
2023-04-21T11:18:36.930Z,61.11
2023-04-21T11:21:09.964Z,61.14
2023-04-21T11:23:42.789Z,61.14
2023-04-21T11:26:11.730Z,61.28
2023-04-21T11:28:43.242Z,61.30
2023-04-21T11:31:11.797Z,61.28
2023-04-21T11:33:40.420Z,61.28
2023-04-21T11:36:09.054Z,61.28
2023-04-21T11:38:41.234Z,61.42
2023-04-21T11:41:10.969Z,61.82
2023-04-21T11:43:39.561Z,61.89
2023-04-21T11:46:37.882Z,62.22
2023-04-21T11:49:11.951Z,62.47
2023-04-21T11:51:43.812Z,62.54
2023-04-21T11:54:13.325Z,62.52
2023-04-21T11:56:43.744Z,62.58
2023-04-21T11:59:17.246Z,62.68
2023-04-21T12:01:54.856Z,62.65
2023-04-21T12:04:24.404Z,62.72
2023-04-21T12:06:59.892Z,62.61
2023-04-21T12:09:29.489Z,62.84
2023-04-21T12:11:59.135Z,62.91
2023-04-21T12:14:27.497Z,63.01
2023-04-21T12:16:56.976Z,62.88
2023-04-21T12:19:41.433Z,62.81
2023-04-21T12:22:13.507Z,62.78
2023-04-21T12:24:42.087Z,62.89
2023-04-21T12:27:10.562Z,62.94
2023-04-21T12:29:39.870Z,62.98
2023-04-21T12:32:09.566Z,63.05
2023-04-21T12:34:38.480Z,63.07
2023-04-21T12:37:07.153Z,63.01
2023-04-21T12:39:35.854Z,62.74
2023-04-21T12:42:04.419Z,62.91
2023-04-21T12:44:32.997Z,62.90
2023-04-21T12:47:01.491Z,63.04
2023-04-21T12:49:30.290Z,62.91
2023-04-21T12:51:59.158Z,62.78
2023-04-21T12:54:27.541Z,62.85
2023-04-21T12:56:56.140Z,62.93
2023-04-21T12:59:24.800Z,63.00
2023-04-21T13:01:53.403Z,62.90
2023-04-21T13:04:22.358Z,62.93
2023-04-21T13:06:50.856Z,62.93
2023-04-21T13:09:19.336Z,62.97
2023-04-21T13:11:47.816Z,62.91
2023-04-21T13:14:17.216Z,62.95
2023-04-21T13:16:45.856Z,62.59
2023-04-21T13:19:14.175Z,62.43
2023-04-21T13:21:42.665Z,62.18
2023-04-21T13:24:14.590Z,61.75
2023-04-21T13:26:43.506Z,61.82
2023-04-21T13:29:12.195Z,61.74
2023-04-21T13:31:40.766Z,61.57
2023-04-21T13:34:09.303Z,61.42
2023-04-21T13:36:38.046Z,61.35
2023-04-21T13:39:09.799Z,61.31
2023-04-21T13:41:37.889Z,61.21
2023-04-21T13:44:06.453Z,61.00
2023-04-21T13:46:35.221Z,60.89
2023-04-21T13:49:03.753Z,60.69
2023-04-21T13:51:32.511Z,60.87
2023-04-21T13:54:01.005Z,60.98
2023-04-21T13:56:29.427Z,61.12
2023-04-21T13:58:59.563Z,60.89
2023-04-21T14:01:28.009Z,60.69
2023-04-21T14:03:57.627Z,60.79
2023-04-21T14:06:26.774Z,60.95
2023-04-21T14:08:55.254Z,60.91
2023-04-21T14:11:23.681Z,61.06
2023-04-21T14:14:08.339Z,60.97
2023-04-21T14:16:38.548Z,60.83
2023-04-21T14:19:07.215Z,60.76
2023-04-21T14:21:35.997Z,60.72
2023-04-21T14:24:04.483Z,60.38
2023-04-21T14:26:33.370Z,60.26
2023-04-21T14:29:02.010Z,60.32
2023-04-21T14:31:30.902Z,60.21
2023-04-21T14:33:59.330Z,60.22
2023-04-21T14:36:28.175Z,60.32
2023-04-21T14:38:56.729Z,59.90
2023-04-21T14:41:25.119Z,59.82
2023-04-21T14:43:56.247Z,60.00
2023-04-21T14:46:24.634Z,59.97
2023-04-21T14:48:53.691Z,60.12
2023-04-21T14:51:22.308Z,60.43
2023-04-21T14:53:51.283Z,60.56
2023-04-21T14:56:19.956Z,60.39
2023-04-21T14:58:48.216Z,60.19
2023-04-21T15:01:17.107Z,60.47
2023-04-21T15:03:45.717Z,60.63
2023-04-21T15:06:14.379Z,60.79
2023-04-21T15:08:42.655Z,60.79
2023-04-21T15:11:11.172Z,60.38
2023-04-21T15:13:39.946Z,60.36
2023-04-21T15:16:08.763Z,60.18
2023-04-21T15:18:37.498Z,60.43
2023-04-21T15:21:05.924Z,60.57
2023-04-21T15:23:36.108Z,60.90
2023-04-21T15:26:04.913Z,60.92
2023-04-21T15:28:33.670Z,60.79
2023-04-21T15:31:02.845Z,60.79
2023-04-21T15:33:31.464Z,60.62
2023-04-21T15:35:59.858Z,60.71
2023-04-21T15:38:28.431Z,60.75
2023-04-21T15:41:01.215Z,61.15
2023-04-21T15:43:30.400Z,61.12
2023-04-21T15:45:58.949Z,61.20
2023-04-21T15:48:27.983Z,61.21
2023-04-21T15:50:56.690Z,61.18
2023-04-21T15:53:25.022Z,61.16
2023-04-21T15:55:53.609Z,61.25
2023-04-21T15:58:22.415Z,61.21
2023-04-21T16:00:51.093Z,61.24
2023-04-21T16:03:19.925Z,61.30
2023-04-21T16:05:48.979Z,61.10
2023-04-21T16:08:17.865Z,61.17
2023-04-21T16:10:46.292Z,61.34
2023-04-21T16:13:15.343Z,61.44
2023-04-21T16:15:43.882Z,61.65
2023-04-21T16:18:12.647Z,61.83
2023-04-21T16:20:42.020Z,61.91
2023-04-21T16:23:10.690Z,62.15
2023-04-21T16:25:39.018Z,62.10
2023-04-21T16:28:07.724Z,62.02
2023-04-21T16:30:38.640Z,62.23
2023-04-21T16:33:06.975Z,62.09
2023-04-21T16:35:35.873Z,62.02
2023-04-21T16:38:05.152Z,62.13
2023-04-21T16:40:34.873Z,62.25
2023-04-21T16:43:03.448Z,62.44
2023-04-21T16:45:32.037Z,62.70
2023-04-21T16:48:00.670Z,62.94
2023-04-21T16:50:29.444Z,62.96
2023-04-21T16:52:58.102Z,63.27
2023-04-21T16:55:26.682Z,63.47
2023-04-21T16:57:55.383Z,63.62
2023-04-21T17:00:23.730Z,63.78
2023-04-21T17:02:52.215Z,63.79
2023-04-21T17:05:20.792Z,63.84
2023-04-21T17:07:49.479Z,63.92
2023-04-21T17:10:18.378Z,63.73
2023-04-21T17:12:46.949Z,63.84
2023-04-21T17:15:15.739Z,64.05
2023-04-21T17:17:45.155Z,63.97
2023-04-21T17:20:14.201Z,64.05
2023-04-21T17:22:42.746Z,64.43
2023-04-21T17:25:11.610Z,64.95
2023-04-21T17:27:41.162Z,65.07
2023-04-21T17:30:10.621Z,65.20
2023-04-21T17:32:41.126Z,65.55
2023-04-21T17:35:09.622Z,65.88
2023-04-21T17:37:38.683Z,66.10
2023-04-21T17:40:09.772Z,66.06
2023-04-21T17:42:40.591Z,66.16
2023-04-21T17:45:09.707Z,66.31
2023-04-21T17:47:38.222Z,66.22
2023-04-21T17:50:10.132Z,66.45
2023-04-21T17:52:39.942Z,66.61
2023-04-21T17:55:09.058Z,66.62
2023-04-21T17:57:37.641Z,66.79
2023-04-21T18:00:08.120Z,67.04
2023-04-21T18:02:37.761Z,66.92
2023-04-21T18:05:06.907Z,67.16
2023-04-21T18:07:35.640Z,67.30
2023-04-21T18:10:05.460Z,67.38
2023-04-21T18:12:33.937Z,67.54
2023-04-21T18:15:02.205Z,67.61
2023-04-21T18:17:31.461Z,67.70
2023-04-21T18:19:59.991Z,67.68
2023-04-21T18:22:28.482Z,67.70
2023-04-21T18:24:56.854Z,67.90
2023-04-21T18:27:25.266Z,68.07
2023-04-21T18:29:53.705Z,68.14
2023-04-21T18:32:22.528Z,68.21
2023-04-21T18:34:50.872Z,68.20
2023-04-21T18:37:19.252Z,68.31
2023-04-21T18:39:47.843Z,68.31
2023-04-21T18:42:16.130Z,68.53
2023-04-21T18:44:44.690Z,68.68
2023-04-21T18:47:13.348Z,68.68
2023-04-21T18:49:42.482Z,68.96
2023-04-21T18:52:10.762Z,69.28
2023-04-21T18:54:39.891Z,69.24
2023-04-21T18:57:09.039Z,69.30
2023-04-21T18:59:37.333Z,69.38
2023-04-21T19:02:06.497Z,69.37
2023-04-21T19:04:35.618Z,69.33
2023-04-21T19:07:04.897Z,69.47
2023-04-21T19:09:34.121Z,69.43
2023-04-21T19:12:03.917Z,69.51
2023-04-21T19:14:42.557Z,69.51
2023-04-21T19:17:15.321Z,69.38
2023-04-21T19:19:43.898Z,69.43
2023-04-21T19:22:12.384Z,69.45
2023-04-21T19:24:41.006Z,69.61
2023-04-21T19:27:09.549Z,69.71
2023-04-21T19:29:38.131Z,69.86
2023-04-21T19:32:07.579Z,69.91
2023-04-21T19:34:37.303Z,69.99
2023-04-21T19:37:06.037Z,70.07
2023-04-21T19:39:34.519Z,70.16
2023-04-21T19:42:03.206Z,70.22
2023-04-21T19:44:32.185Z,70.23
2023-04-21T19:47:01.302Z,70.22
2023-04-21T19:49:30.377Z,70.45
2023-04-21T19:51:58.858Z,70.44
2023-04-21T19:54:27.750Z,70.44
2023-04-21T19:56:56.437Z,70.41
2023-04-21T19:59:25.124Z,70.33
2023-04-21T20:01:53.830Z,70.34
2023-04-21T20:04:22.607Z,70.48
2023-04-21T20:06:51.385Z,70.49
2023-04-21T20:09:20.183Z,70.62
2023-04-21T20:11:48.651Z,70.54
2023-04-21T20:14:18.310Z,70.44
2023-04-21T20:16:46.734Z,70.27
2023-04-21T20:19:17.888Z,70.15
2023-04-21T20:21:46.578Z,70.26
2023-04-21T20:24:14.842Z,70.12
2023-04-21T20:26:43.257Z,70.15
2023-04-21T20:29:11.507Z,70.21
2023-04-21T20:31:39.918Z,70.12
2023-04-21T20:34:08.962Z,70.11
2023-04-21T20:36:37.656Z,70.15
2023-04-21T20:39:06.872Z,70.14
2023-04-21T20:41:35.840Z,70.17
2023-04-21T20:44:04.327Z,70.05
2023-04-21T20:46:33.745Z,70.00
2023-04-21T20:49:02.003Z,70.00
2023-04-21T20:51:30.889Z,69.85
2023-04-21T20:53:59.702Z,70.03
2023-04-21T20:56:27.953Z,69.89
2023-04-21T20:58:56.640Z,69.70
2023-04-21T21:01:24.996Z,69.68
2023-04-21T21:03:54.234Z,69.64
2023-04-21T21:06:22.697Z,69.52
2023-04-21T21:08:51.525Z,69.54
2023-04-21T21:11:20.167Z,69.70
2023-04-21T21:13:48.451Z,69.57
2023-04-21T21:16:17.146Z,69.62
2023-04-21T21:18:45.711Z,69.45
2023-04-21T21:21:14.192Z,69.46
2023-04-21T21:23:42.879Z,69.50
2023-04-21T21:26:11.263Z,69.49
2023-04-21T21:28:39.842Z,69.57
2023-04-21T21:31:08.316Z,69.53
2023-04-21T21:33:36.696Z,69.65
2023-04-21T21:36:05.891Z,69.61
2023-04-21T21:38:34.175Z,69.50
2023-04-21T21:41:02.660Z,69.58
2023-04-21T21:43:31.653Z,69.57
2023-04-21T21:46:00.387Z,69.61
2023-04-21T21:48:29.020Z,69.66
2023-04-21T21:50:57.493Z,69.66
2023-04-21T21:53:25.971Z,69.67
2023-04-21T21:55:54.368Z,69.67
2023-04-21T21:58:22.932Z,69.70
2023-04-21T22:00:52.336Z,69.74
2023-04-21T22:03:21.570Z,69.78
2023-04-21T22:05:50.029Z,69.72
2023-04-21T22:08:18.702Z,69.87
2023-04-21T22:10:46.988Z,70.01
2023-04-21T22:13:15.573Z,69.92
2023-04-21T22:15:43.924Z,70.19
2023-04-21T22:18:12.316Z,70.14
2023-04-21T22:20:41.203Z,70.17
2023-04-21T22:23:09.683Z,70.21
2023-04-21T22:25:38.371Z,70.29
2023-04-21T22:28:06.849Z,70.16
2023-04-21T22:30:35.437Z,70.29
2023-04-21T22:33:04.286Z,70.38
2023-04-21T22:35:32.904Z,70.37
2023-04-21T22:38:01.389Z,70.64
2023-04-21T22:40:30.078Z,70.64
2023-04-21T22:42:58.455Z,70.53
2023-04-21T22:45:26.874Z,70.53
2023-04-21T22:47:56.356Z,70.60
2023-04-21T22:50:25.938Z,70.51
2023-04-21T22:52:54.522Z,70.53
2023-04-21T22:55:23.015Z,70.69
2023-04-21T22:57:51.384Z,70.66
2023-04-21T23:00:19.766Z,70.55
2023-04-21T23:02:48.588Z,70.57
2023-04-21T23:05:17.538Z,70.65
2023-04-21T23:07:46.027Z,70.70
2023-04-21T23:10:14.400Z,70.75
2023-04-21T23:12:42.878Z,70.80
2023-04-21T23:15:11.873Z,70.71
2023-04-21T23:17:40.296Z,70.87
2023-04-21T23:20:29.109Z,71.06
2023-04-21T23:22:57.998Z,70.98
2023-04-21T23:25:26.258Z,71.10
2023-04-21T23:27:54.551Z,71.18
2023-04-21T23:30:22.964Z,71.24
2023-04-21T23:32:51.324Z,71.31
2023-04-21T23:35:19.684Z,71.23
2023-04-21T23:37:49.086Z,71.26
2023-04-21T23:40:17.566Z,71.37
2023-04-21T23:42:47.395Z,71.44
2023-04-21T23:45:16.298Z,71.56
2023-04-21T23:47:45.991Z,71.51
2023-04-21T23:50:14.603Z,71.60
2023-04-21T23:52:44.471Z,71.70
2023-04-21T23:55:12.769Z,71.89
2023-04-21T23:57:41.328Z,71.91
